Time;durP1;ratioP1;P1;durP2;ratioP2;P2;SDS_P1;SDS_P2;PMS_P1;PMS_P2;Temp;Humidity;BMP_temperature;BMP_pressure;BME280_temperature;BME280_humidity;BME280_pressure;Samples;Min_cycle;Max_cycle;Signal;HPM_P1;HPM_P2
2022/11/21 00:02:22;;;;;;;45.88;29.77;;;12.40;99.90;;;;;;4992148;28;20037;-72
2022/11/21 00:05:28;;;;;;;42.30;27.98;;;12.40;99.90;;;;;;4992012;28;20049;-71
2022/11/21 00:08:32;;;;;;;40.53;26.73;;;12.40;99.90;;;;;;4992025;28;20061;-71
2022/11/21 00:11:36;;;;;;;41.42;26.35;;;12.60;99.90;;;;;;4991994;28;20418;-71
2022/11/21 00:14:40;;;;;;;41.40;28.00;;;12.40;99.90;;;;;;4992124;28;20057;-71
2022/11/21 00:17:44;;;;;;;46.20;28.17;;;;;;;;;;4991939;28;20057;-71
2022/11/21 00:20:48;;;;;;;40.58;26.20;;;12.60;99.90;;;;;;4991761;28;20037;-71
2022/11/21 00:23:52;;;;;;;44.70;26.63;;;14.10;99.90;;;;;;4992116;28;20049;-71
2022/11/21 00:26:56;;;;;;;39.30;25.20;;;12.40;99.90;;;;;;4992018;28;20061;-71
2022/11/21 00:30:00;;;;;;;38.95;26.65;;;14.00;99.90;;;;;;5002406;28;20061;-71
2022/11/21 00:33:05;;;;;;;34.60;24.83;;;;;;;;;;4991923;28;20520;-71
2022/11/21 00:36:09;;;;;;;39.15;26.00;;;12.40;99.90;;;;;;4991886;28;20390;-71
2022/11/21 00:39:13;;;;;;;38.85;26.73;;;12.20;99.90;;;;;;4991981;28;20493;-71
2022/11/21 00:42:17;;;;;;;39.22;26.65;;;12.20;99.90;;;;;;4991099;28;20053;-71
2022/11/21 00:45:21;;;;;;;40.70;27.85;;;11.90;99.90;;;;;;4991533;28;20065;-71
2022/11/21 00:48:25;;;;;;;42.85;26.75;;;11.30;99.90;;;;;;4991841;28;20042;-71
2022/11/21 00:51:29;;;;;;;41.08;28.52;;;12.00;99.90;;;;;;4991519;28;20058;-71
2022/11/21 00:54:33;;;;;;;46.67;27.77;;;12.10;99.90;;;;;;4991708;28;20041;-71
2022/11/21 00:57:37;;;;;;;40.28;26.90;;;12.10;99.90;;;;;;4991734;28;20490;-71
2022/11/21 01:00:41;;;;;;;46.92;26.55;;;12.60;99.90;;;;;;4991745;28;20046;-71
2022/11/21 01:03:45;;;;;;;40.80;26.40;;;12.20;99.90;;;;;;4991543;28;20041;-71
2022/11/21 01:06:49;;;;;;;39.13;25.98;;;12.20;99.90;;;;;;4991424;28;20045;-71
2022/11/21 01:09:52;;;;;;;36.22;24.20;;;12.40;99.90;;;;;;4991619;28;20053;-71
2022/11/21 01:12:56;;;;;;;34.78;24.42;;;12.30;99.90;;;;;;4993511;28;20058;-71
2022/11/21 01:16:05;;;;;;;38.22;24.25;;;11.50;99.90;;;;;;4995426;28;20045;-71
2022/11/21 01:19:09;;;;;;;42.33;24.65;;;12.50;99.90;;;;;;4995767;28;20382;-71
2022/11/21 01:22:13;;;;;;;33.67;23.60;;;12.70;99.90;;;;;;4995310;28;20049;-71
2022/11/21 01:25:17;;;;;;;34.13;21.50;;;12.50;99.90;;;;;;4994894;28;20041;-71
2022/11/21 01:28:21;;;;;;;27.05;18.70;;;12.40;99.90;;;;;;4995107;28;20049;-71
2022/11/21 01:31:28;;;;;;;25.02;15.63;;;12.40;99.90;;;;;;4994478;28;20062;-71
2022/11/21 01:34:32;;;;;;;17.65;12.82;;;12.40;99.90;;;;;;4995058;28;20041;-71
2022/11/21 01:37:36;;;;;;;23.80;11.77;;;12.70;99.90;;;;;;4994880;28;20057;-72
2022/11/21 01:40:40;;;;;;;18.33;11.48;;;12.40;99.90;;;;;;4995021;28;20517;-71
2022/11/21 01:43:46;;;;;;;16.60;11.15;;;12.40;99.90;;;;;;4994970;28;20124;-71
2022/11/21 01:46:51;;;;;;;19.15;13.00;;;12.50;99.90;;;;;;4994695;28;20041;-71
2022/11/21 01:49:55;;;;;;;21.90;15.35;;;14.10;99.90;;;;;;4994585;28;20053;-71
2022/11/21 01:52:59;;;;;;;61.38;30.63;;;12.40;99.90;;;;;;4994490;28;20053;-71
2022/11/21 01:56:04;;;;;;;25.35;15.55;;;12.40;99.90;;;;;;4994421;28;20394;-71
2022/11/21 01:59:13;;;;;;;21.15;12.70;;;12.20;99.90;;;;;;4994395;28;20398;-71
2022/11/21 02:02:22;;;;;;;20.08;13.43;;;12.20;99.90;;;;;;4994514;28;20045;-71
2022/11/21 02:05:30;;;;;;;24.05;13.80;;;12.20;99.90;;;;;;5004928;28;20057;-71
2022/11/21 02:08:34;;;;;;;22.65;13.68;;;13.40;99.90;;;;;;4994477;28;20054;-71
2022/11/21 02:11:54;;;;;;;22.55;15.43;;;12.80;99.90;;;;;;4994324;28;20130;-71
2022/11/21 02:14:58;;;;;;;27.55;18.73;;;11.70;99.90;;;;;;4994272;28;20049;-71
2022/11/21 02:18:04;;;;;;;28.77;20.05;;;12.00;99.90;;;;;;4994154;28;20049;-71
2022/11/21 02:21:19;;;;;;;31.05;20.02;;;12.10;99.90;;;;;;4994019;28;20050;-71
2022/11/21 02:24:51;;;;;;;23.27;17.10;;;11.90;99.90;;;;;;4993925;28;20038;-71
2022/11/21 02:28:01;;;;;;;25.55;17.48;;;11.90;99.90;;;;;;5004262;28;20069;-71
2022/11/21 02:31:06;;;;;;;29.00;18.02;;;15.60;99.90;;;;;;4993571;28;20418;-71
2022/11/21 02:34:10;;;;;;;23.98;18.13;;;11.60;99.90;;;;;;4993490;28;20046;-71
2022/11/21 02:37:14;;;;;;;27.67;18.15;;;11.80;99.90;;;;;;4993837;28;20065;-71
2022/11/21 02:40:24;;;;;;;25.85;18.27;;;11.80;99.90;;;;;;4993559;28;20045;-72
2022/11/21 02:43:34;;;;;;;29.02;19.30;;;11.90;99.90;;;;;;4993969;28;20049;-71
2022/11/21 02:46:47;;;;;;;28.75;17.83;;;10.90;99.90;;;;;;4993721;28;20378;-71
2022/11/21 02:50:08;;;;;;;24.27;16.48;;;11.70;99.90;;;;;;4993763;28;20058;-71
2022/11/21 02:53:15;;;;;;;27.80;16.85;;;11.70;99.90;;;;;;4993460;28;20050;-71
2022/11/21 02:56:19;;;;;;;24.65;16.65;;;;;;;;;;4993389;28;20033;-71
2022/11/21 02:59:23;;;;;;;23.65;16.60;;;;;;;;;;4994267;28;20061;-71
2022/11/21 03:02:28;;;;;;;26.33;17.38;;;;;;;;;;4993374;28;20386;-71
2022/11/21 03:05:32;;;;;;;25.88;16.83;;;12.70;99.90;;;;;;4992896;28;20497;-71
2022/11/21 03:08:35;;;;;;;21.08;15.70;;;12.00;99.90;;;;;;4993614;28;20461;-71
2022/11/21 03:11:40;;;;;;;21.30;14.18;;;;;;;;;;4993245;28;20062;-71
2022/11/21 03:14:44;;;;;;;24.38;15.35;;;11.60;99.90;;;;;;4993451;28;20046;-71
2022/11/21 03:17:48;;;;;;;21.35;14.45;;;;;;;;;;4993009;28;20049;-71
2022/11/21 03:20:52;;;;;;;18.27;14.82;;;;;;;;;;4992812;28;20037;-71
2022/11/21 03:23:57;;;;;;;22.70;14.93;;;;;;;;;;4992604;28;20045;-71
2022/11/21 03:27:00;;;;;;;17.80;14.18;;;12.50;99.90;;;;;;4992871;28;20041;-71
2022/11/21 03:30:05;;;;;;;23.75;15.15;;;11.30;99.90;;;;;;4992401;28;20076;-71
2022/11/21 03:33:09;;;;;;;18.60;13.00;;;;;;;;;;4992430;28;20061;-71
2022/11/21 03:36:13;;;;;;;16.95;13.25;;;9.40;99.90;;;;;;4991926;28;20054;-71
2022/11/21 03:39:17;;;;;;;20.48;12.95;;;;;;;;;;4992636;28;20053;-71
2022/11/21 03:42:21;;;;;;;18.65;13.15;;;;;;;;;;4992332;28;20041;-71
2022/11/21 03:45:26;;;;;;;18.98;13.20;;;;;;;;;;4992397;28;20049;-71
2022/11/21 03:48:30;;;;;;;18.80;13.77;;;11.20;99.90;;;;;;4992214;28;20061;-71
2022/11/21 03:51:34;;;;;;;19.27;13.95;;;11.00;99.90;;;;;;4992195;28;20122;-71
2022/11/21 03:54:39;;;;;;;19.33;13.27;;;;;;;;;;4992254;28;20065;-71
2022/11/21 03:57:43;;;;;;;18.00;13.85;;;;;;;;;;4992447;28;20623;-71
2022/11/21 04:00:48;;;;;;;20.52;11.82;;;;;;;;;;4992162;28;20398;-71
2022/11/21 04:03:52;;;;;;;18.08;12.23;;;;;;;;;;4992106;28;20046;-71
2022/11/21 04:06:56;;;;;;;15.52;12.40;;;;;;;;;;4992373;28;20049;-71
2022/11/21 04:10:01;;;;;;;19.98;12.07;;;;;;;;;;4992250;28;20053;-71
2022/11/21 04:13:04;;;;;;;30.25;18.25;;;12.60;99.90;;;;;;5002370;28;20045;-71
2022/11/21 04:16:09;;;;;;;16.73;12.05;;;;;;;;;;4991828;28;20548;-71
2022/11/21 04:19:13;;;;;;;17.30;11.68;;;;;;;;;;4991889;28;20057;-71
2022/11/21 04:22:17;;;;;;;17.80;11.65;;;;;;;;;;4992023;28;20050;-71
2022/11/21 04:25:22;;;;;;;19.50;12.32;;;;;;;;;;4991841;28;20688;-71
2022/11/21 04:28:26;;;;;;;19.13;12.15;;;;;;;;;;4992044;28;20057;-71
2022/11/21 04:31:31;;;;;;;17.27;11.77;;;;;;;;;;4992087;28;20061;-71
2022/11/21 04:34:35;;;;;;;18.33;12.07;;;10.70;99.90;;;;;;4991624;28;20050;-71
2022/11/21 04:37:39;;;;;;;17.35;12.43;;;;;;;;;;4991740;28;20061;-71
2022/11/21 04:40:44;;;;;;;17.05;10.75;;;10.60;99.90;;;;;;4991097;28;20501;-71
2022/11/21 04:43:48;;;;;;;18.98;12.38;;;;;;;;;;4991881;28;20053;-71
2022/11/21 04:46:52;;;;;;;24.50;12.70;;;10.40;99.90;;;;;;4992545;28;20386;-70
2022/11/21 04:49:57;;;;;;;20.08;12.40;;;;;;;;;;4995722;28;20050;-70
2022/11/21 04:53:01;;;;;;;16.77;12.23;;;10.60;99.90;;;;;;4995611;28;20057;-71
2022/11/21 04:56:05;;;;;;;21.02;11.57;;;10.10;99.90;;;;;;4995831;28;20394;-70
2022/11/21 04:59:11;;;;;;;16.55;12.02;;;;;;;;;;4995557;28;20394;-70
2022/11/21 05:02:15;;;;;;;16.48;11.32;;;;;;;;;;4995504;28;20041;-70
2022/11/21 05:05:20;;;;;;;18.23;11.73;;;;;;;;;;4995417;28;20042;-70
2022/11/21 05:08:24;;;;;;;19.40;11.88;;;;;;;;;;4995706;28;20045;-70
2022/11/21 05:14:50;;;;;;;19.55;11.95;;;;;;;;;;4994997;28;20045;-70
2022/11/21 05:17:54;;;;;;;14.90;11.13;;;;;;;;;;4995225;28;20053;-70
2022/11/21 05:21:01;;;;;;;19.50;11.95;;;10.20;99.90;;;;;;4995378;28;20045;-70
2022/11/21 05:24:06;;;;;;;22.30;12.02;;;;;;;;;;4995027;28;20054;-70
2022/11/21 05:27:10;;;;;;;16.65;11.30;;;;;;;;;;4994990;28;20050;-70
2022/11/21 05:30:14;;;;;;;21.88;11.75;;;;;;;;;;4995014;28;20059;-70
2022/11/21 05:33:19;;;;;;;23.38;12.95;;;;;;;;;;4994744;28;20054;-70
2022/11/21 05:36:23;;;;;;;28.92;14.80;;;;;;;;;;4995096;28;20041;-71
2022/11/21 05:39:27;;;;;;;20.83;12.90;;;;;;;;;;4994711;28;20062;-70
2022/11/21 05:45:54;;;;;;;17.33;11.30;;;;;;;;;;4994782;28;20053;-70
2022/11/21 05:48:58;;;;;;;23.98;11.90;;;9.90;99.90;;;;;;4994538;28;20042;-70
2022/11/21 05:52:03;;;;;;;35.78;12.43;;;;;;;;;;4993709;28;20049;-71
2022/11/21 05:55:07;;;;;;;17.08;11.48;;;9.80;99.90;;;;;;4994614;28;20040;-70
2022/11/21 05:58:12;;;;;;;16.67;11.13;;;9.90;99.90;;;;;;4993755;28;20517;-70
2022/11/21 06:03:25;;;;;;;22.63;12.80;;;;;;;;;;4994300;28;20049;-69
2022/11/21 06:04:40;;;;;;;22.48;12.02;;;;;;;;;;4994339;28;20045;-70
2022/11/21 06:07:44;;;;;;;20.05;11.73;;;;;;;;;;5004909;28;20045;-70
2022/11/21 06:10:48;;;;;;;17.83;12.05;;;;;;;;;;4994413;28;20057;-70
2022/11/21 06:13:53;;;;;;;20.10;11.73;;;9.80;99.90;;;;;;4994242;28;20521;-70
2022/11/21 06:16:57;;;;;;;17.20;11.80;;;;;;;;;;4994094;28;20041;-69
2022/11/21 06:20:01;;;;;;;21.20;12.18;;;;;;;;;;4994211;28;20508;-70
2022/11/21 06:23:06;;;;;;;24.73;15.70;;;;;;;;;;4993308;28;20049;-71
2022/11/21 06:26:13;;;;;;;16.13;10.98;;;9.70;99.90;;;;;;4992451;28;20505;-68
2022/11/21 06:29:20;;;;;;;19.98;11.80;;;;;;;;;;4993383;28;20501;-68
2022/11/21 06:32:25;;;;;;;20.73;11.05;;;;;;;;;;4993185;28;20049;-69
2022/11/21 06:35:29;;;;;;;17.15;11.93;;;;;;;;;;4991731;28;20045;-68
2022/11/21 06:38:34;;;;;;;27.10;13.52;;;9.50;99.90;;;;;;4992030;28;20045;-68
2022/11/21 06:41:38;;;;;;;27.20;13.45;;;;;;;;;;4992679;28;20073;-69
2022/11/21 06:44:43;;;;;;;23.52;13.98;;;;;;;;;;4992474;28;20394;-68
2022/11/21 06:47:47;;;;;;;27.13;14.40;;;10.10;99.90;;;;;;4992759;28;20045;-68
2022/11/21 06:50:51;;;;;;;28.50;15.88;;;;;;;;;;4993358;28;20046;-68
2022/11/21 06:53:57;;;;;;;23.73;13.52;;;10.30;99.90;;;;;;4993338;28;20065;-69
2022/11/21 06:57:02;;;;;;;26.38;13.05;;;;;;;;;;4993555;28;20042;-69
2022/11/21 07:00:06;;;;;;;18.45;12.68;;;;;;;;;;4993073;28;20045;-68
2022/11/21 07:03:10;;;;;;;20.08;12.88;;;;;;;;;;4993387;28;20037;-68
2022/11/21 07:06:14;;;;;;;18.45;13.05;;;10.30;99.90;;;;;;4993407;28;20398;-68
2022/11/21 07:09:19;;;;;;;18.00;12.65;;;;;;;;;;4992504;28;20045;-68
2022/11/21 07:15:47;;;;;;;23.42;14.38;;;11.00;99.90;;;;;;4992996;28;20390;-69
2022/11/21 07:18:52;;;;;;;23.48;14.85;;;;;;;;;;4993193;28;20402;-70
2022/11/21 07:21:56;;;;;;;23.05;14.02;;;;;;;;;;4992990;28;20065;-68
2022/11/21 07:25:00;;;;;;;19.27;13.35;;;;;;;;;;4991851;28;20398;-69
2022/11/21 07:28:06;;;;;;;17.70;12.98;;;;;;;;;;4992559;28;20053;-69
2022/11/21 07:31:10;;;;;;;17.77;12.60;;;12.20;99.90;;;;;;4992420;28;20053;-74
2022/11/21 07:34:14;;;;;;;19.23;13.50;;;;;;;;;;5003003;28;20062;-70
2022/11/21 07:37:18;;;;;;;17.17;12.50;;;12.50;99.90;;;;;;4992507;28;20118;-70
2022/11/21 07:40:23;;;;;;;17.98;12.18;;;13.20;99.90;;;;;;4992304;28;20049;-70
2022/11/21 07:43:27;;;;;;;18.50;11.10;;;;;;;;;;4992554;28;20042;-70
2022/11/21 07:46:32;;;;;;;23.50;12.60;;;;;;;;;;4991469;28;20406;-70
2022/11/21 07:49:36;;;;;;;16.45;12.27;;;;;;;;;;4992403;28;20041;-69
2022/11/21 07:52:40;;;;;;;16.77;12.20;;;13.40;99.90;;;;;;4992115;28;20066;-68
2022/11/21 07:55:44;;;;;;;16.48;11.10;;;13.50;99.90;;;;;;4992244;28;20057;-69
2022/11/21 07:58:51;;;;;;;17.48;11.10;;;13.80;99.90;;;;;;4992292;28;20058;-70
2022/11/21 08:01:55;;;;;;;18.45;11.13;;;13.70;99.90;;;;;;4992289;28;20049;-69
2022/11/21 08:04:58;;;;;;;14.25;11.10;;;14.00;99.90;;;;;;5002259;28;20069;-69
2022/11/21 08:08:03;;;;;;;21.15;10.55;;;14.10;99.70;;;;;;4992014;28;20041;-70
2022/11/21 08:11:07;;;;;;;25.42;12.05;;;14.10;99.60;;;;;;4991986;28;20041;-69
2022/11/21 08:14:11;;;;;;;14.57;10.68;;;14.20;99.90;;;;;;4991655;28;20438;-69
2022/11/21 08:17:17;;;;;;;20.45;11.65;;;14.40;99.80;;;;;;4991975;28;20045;-68
2022/11/21 08:20:21;;;;;;;16.05;11.00;;;14.50;99.70;;;;;;4992210;28;20405;-69
2022/11/21 08:23:24;;;;;;;13.38;9.95;;;14.50;99.90;;;;;;4991720;28;20645;-66
2022/11/21 08:26:28;;;;;;;12.23;9.55;;;14.70;99.90;;;;;;5002572;28;20500;-69
2022/11/21 08:29:32;;;;;;;14.35;9.93;;;15.20;99.70;;;;;;4991376;28;20041;-69
2022/11/21 08:32:37;;;;;;;15.13;9.48;;;15.10;99.60;;;;;;4991793;28;20061;-69
2022/11/21 08:35:41;;;;;;;13.52;8.82;;;15.30;99.30;;;;;;4991404;28;20037;-69
2022/11/21 08:38:45;;;;;;;17.92;8.88;;;15.40;98.10;;;;;;4991245;28;20069;-66
2022/11/21 08:42:04;;;;;;;11.85;7.45;;;15.60;97.80;;;;;;4991320;28;20057;-67
2022/11/21 08:45:09;;;;;;;14.75;8.80;;;15.80;97.30;;;;;;4991285;28;20045;-70
2022/11/21 08:48:13;;;;;;;9.85;6.50;;;15.90;96.90;;;;;;4990187;28;20054;-70
2022/11/21 08:51:17;;;;;;;11.50;7.15;;;16.10;96.30;;;;;;4990567;28;20049;-67
2022/11/21 08:54:22;;;;;;;13.00;8.18;;;16.10;95.40;;;;;;4991510;28;20057;-69
2022/11/21 08:57:26;;;;;;;12.70;8.43;;;16.10;95.00;;;;;;4991223;28;20045;-69
2022/11/21 09:00:30;;;;;;;14.77;7.28;;;16.10;95.50;;;;;;4991520;28;20037;-69
2022/11/21 09:03:34;;;;;;;14.65;6.93;;;16.10;94.70;;;;;;4991347;28;20053;-68
2022/11/21 09:06:38;;;;;;;11.95;7.55;;;16.20;94.30;;;;;;4991554;28;20387;-69
2022/11/21 09:09:42;;;;;;;12.35;7.18;;;16.10;94.30;;;;;;4992045;28;20046;-69
2022/11/21 09:12:46;;;;;;;10.73;6.20;;;16.00;94.20;;;;;;4991282;28;20058;-70
2022/11/21 09:19:13;;;;;;;13.40;5.40;;;16.20;94.00;;;;;;4991004;28;20053;-69
2022/11/21 09:22:17;;;;;;;13.50;6.28;;;16.10;93.80;;;;;;4991306;28;20505;-67
2022/11/21 09:25:20;;;;;;;8.13;5.30;;;16.30;94.20;;;;;;4991488;28;20049;-69
2022/11/21 09:28:25;;;;;;;17.13;5.72;;;16.60;93.50;;;;;;4991472;28;20053;-70
2022/11/21 09:31:29;;;;;;;8.18;5.57;;;16.70;92.00;;;;;;4991023;28;20529;-69
2022/11/21 09:34:32;;;;;;;8.57;4.43;;;16.80;92.30;;;;;;4994215;28;20049;-68
2022/11/21 09:37:39;;;;;;;8.50;5.47;;;17.10;91.30;;;;;;4994110;28;20402;-68
2022/11/21 09:40:46;;;;;;;10.35;6.25;;;17.30;91.10;;;;;;4994642;28;20049;-67
2022/11/21 09:44:05;;;;;;;9.20;5.93;;;17.40;91.00;;;;;;4994411;28;20079;-68
2022/11/21 09:47:25;;;;;;;9.82;5.47;;;17.20;90.50;;;;;;4994621;28;20393;-68
2022/11/21 09:50:33;;;;;;;10.07;6.82;;;17.10;90.90;;;;;;4994803;28;20049;-68
2022/11/21 09:53:48;;;;;;;9.07;5.57;;;17.20;91.10;;;;;;4994266;28;20509;-68
2022/11/21 09:56:53;;;;;;;10.82;5.53;;;17.10;90.40;;;;;;4994300;28;20037;-68
2022/11/21 09:59:57;;;;;;;6.45;4.95;;;17.20;89.70;;;;;;4994424;28;20050;-69
2022/11/21 10:03:02;;;;;;;6.78;5.28;;;17.40;89.70;;;;;;4994499;28;20045;-69
2022/11/21 10:06:19;;;;;;;10.18;5.13;;;17.60;88.90;;;;;;4994419;28;20069;-69
2022/11/21 10:09:53;;;;;;;11.13;5.80;;;17.80;85.80;;;;;;4994179;28;20045;-69
2022/11/21 10:13:19;;;;;;;9.05;4.18;;;17.90;85.90;;;;;;4993887;28;20050;-68
2022/11/21 10:16:55;;;;;;;7.28;4.25;;;18.00;83.80;;;;;;4994225;28;20037;-69
2022/11/21 10:20:28;;;;;;;5.75;3.60;;;18.10;84.60;;;;;;4993943;28;20042;-69
2022/11/21 10:23:44;;;;;;;9.40;3.78;;;18.10;83.30;;;;;;4993952;28;20111;-72
2022/11/21 10:27:03;;;;;;;5.75;4.28;;;17.80;82.30;;;;;;4994200;28;20053;-71
2022/11/21 10:30:18;;;;;;;6.63;3.55;;;17.70;82.80;;;;;;4993553;28;20402;-68
2022/11/21 10:33:33;;;;;;;7.50;4.00;;;17.80;83.00;;;;;;4993440;28;20049;-68
2022/11/21 10:36:40;;;;;;;5.68;3.35;;;17.70;82.00;;;;;;4993987;28;20042;-68
2022/11/21 10:39:49;;;;;;;11.55;3.70;;;17.80;82.10;;;;;;4993706;28;20041;-68
2022/11/21 10:46:57;;;;;;;4.78;2.50;;;18.40;80.00;;;;;;4993238;28;20046;-68
2022/11/21 10:50:38;;;;;;;5.55;2.45;;;18.60;78.30;;;;;;4993158;28;20054;-69
2022/11/21 10:57:15;;;;;;;5.97;2.97;;;18.80;73.10;;;;;;4992854;28;20189;-68
2022/11/21 11:00:28;;;;;;;5.15;1.95;;;18.90;73.30;;;;;;4993195;28;20054;-69
2022/11/21 11:03:32;;;;;;;4.45;1.80;;;18.90;72.20;;;;;;4992750;28;20042;-69
2022/11/21 11:06:37;;;;;;;5.38;2.17;;;18.90;71.30;;;;;;4993232;28;20057;-70
2022/11/21 11:09:45;;;;;;;4.57;2.33;;;18.80;71.50;;;;;;4993075;28;20045;-72
2022/11/21 11:16:16;;;;;;;5.10;2.25;;;18.80;73.90;;;;;;4993126;28;20045;-70
2022/11/21 11:19:28;;;;;;;2.97;2.15;;;18.70;73.60;;;;;;4993183;28;20041;-71
2022/11/21 11:22:32;;;;;;;4.93;2.80;;;18.60;74.20;;;;;;4992534;28;20045;-70
2022/11/21 11:25:36;;;;;;;4.43;2.72;;;18.60;74.90;;;;;;4992533;28;20402;-70
2022/11/21 11:28:40;;;;;;;3.42;2.58;;;18.40;72.60;;;;;;4992644;28;20394;-70
2022/11/21 11:32:03;;;;;;;4.20;2.80;;;18.30;73.70;;;;;;4992379;28;20065;-71
2022/11/21 11:35:16;;;;;;;6.72;3.38;;;18.30;75.50;;;;;;4992804;28;20057;-70
2022/11/21 11:38:23;;;;;;;7.28;2.75;;;18.20;74.60;;;;;;4992506;28;20302;-70
2022/11/21 11:48:38;;;;;;;6.10;3.30;;;18.00;73.90;;;;;;4992641;28;20053;-70
2022/11/21 11:51:46;;;;;;;4.20;2.80;;;17.80;74.80;;;;;;4992550;28;20053;-72
2022/11/21 11:54:58;;;;;;;5.07;3.05;;;17.80;76.20;;;;;;4992444;28;20057;-71
2022/11/21 11:58:10;;;;;;;8.90;3.60;;;17.80;77.60;;;;;;4992248;28;20041;-70
2022/11/21 12:01:26;;;;;;;6.45;3.25;;;17.90;76.70;;;;;;4992102;28;20406;-70
2022/11/21 12:04:43;;;;;;;4.55;2.95;;;17.80;76.30;;;;;;4992206;28;20110;-70
2022/11/21 12:08:07;;;;;;;7.70;3.20;;;17.90;77.30;;;;;;4992456;28;20513;-70
2022/11/21 12:18:55;;;;;;;9.20;3.20;;;17.90;77.40;;;;;;4991702;28;20386;-71
2022/11/21 12:22:00;;;;;;;6.38;2.80;;;17.90;77.30;;;;;;4992060;28;20410;-69
2022/11/21 12:25:11;;;;;;;4.75;2.42;;;17.80;77.80;;;;;;4992059;28;20045;-70
2022/11/21 12:28:40;;;;;;;5.17;2.10;;;17.80;77.60;;;;;;4991795;28;20049;-70
2022/11/21 12:31:44;;;;;;;3.28;2.00;;;17.70;77.30;;;;;;4991732;28;20061;-71
2022/11/21 12:35:00;;;;;;;5.30;2.20;;;17.70;77.30;;;;;;4991684;28;20057;-70
2022/11/21 12:38:36;;;;;;;3.97;2.05;;;17.70;77.00;;;;;;4991480;28;20057;-70
2022/11/21 12:45:45;;;;;;;6.70;2.03;;;17.70;78.50;;;;;;5002069;28;20065;-69
2022/11/21 12:56:39;;;;;;;4.72;1.80;;;17.60;78.00;;;;;;4991644;28;20042;-69
2022/11/21 13:00:08;;;;;;;2.95;1.20;;;17.70;78.60;;;;;;4991722;28;20049;-69
2022/11/21 13:03:18;;;;;;;2.13;1.30;;;17.60;79.00;;;;;;4991259;28;20394;-69
2022/11/21 13:06:26;;;;;;;2.85;1.33;;;17.60;78.50;;;;;;4991694;28;20045;-69
2022/11/21 13:09:39;;;;;;;9.80;2.40;;;17.60;78.10;;;;;;4994735;28;20528;-68
2022/11/21 13:12:58;;;;;;;7.53;2.33;;;17.60;78.30;;;;;;4995330;28;20053;-69
2022/11/21 13:16:15;;;;;;;3.88;1.40;;;17.50;78.30;;;;;;4994857;28;20393;-69
2022/11/21 13:19:33;;;;;;;3.45;1.63;;;17.50;79.00;;;;;;4995189;28;20486;-69
2022/11/21 13:22:37;;;;;;;3.70;1.40;;;17.50;79.20;;;;;;4994633;28;20049;-69
2022/11/21 13:25:45;;;;;;;2.95;1.45;;;17.40;79.60;;;;;;4995193;28;20050;-70
2022/11/21 13:28:49;;;;;;;4.30;2.38;;;17.40;79.70;;;;;;4994877;28;20041;-69
2022/11/21 13:31:53;;;;;;;2.45;1.13;;;17.40;80.00;;;;;;4995025;28;20553;-69
2022/11/21 13:34:58;;;;;;;2.70;1.65;;;17.40;80.70;;;;;;4994752;28;20052;-68
2022/11/21 13:38:03;;;;;;;6.70;1.80;;;17.30;82.30;;;;;;4995043;28;20041;-68
2022/11/21 13:44:33;;;;;;;7.53;1.55;;;17.30;82.80;;;;;;4994588;28;20049;-69
2022/11/21 13:48:00;;;;;;;5.63;1.50;;;17.20;82.40;;;;;;4994901;28;20429;-72
2022/11/21 13:51:25;;;;;;;4.78;1.40;;;17.20;82.30;;;;;;4994648;28;20041;-71
2022/11/21 13:54:58;;;;;;;6.47;1.40;;;17.20;82.20;;;;;;4994112;28;20053;-69
2022/11/21 13:58:13;;;;;;;3.42;1.63;;;17.20;82.80;;;;;;4994444;28;20041;-69
2022/11/21 14:01:26;;;;;;;2.50;1.30;;;17.20;82.70;;;;;;4992015;28;20049;-69
2022/11/21 14:04:36;;;;;;;3.65;1.20;;;17.20;83.00;;;;;;4993032;28;20057;-69
2022/11/21 14:07:42;;;;;;;4.80;1.77;;;17.10;82.90;;;;;;4992964;28;20049;-69
2022/11/21 14:10:49;;;;;;;3.45;1.55;;;17.10;84.30;;;;;;4993139;28;20497;-69
2022/11/21 14:13:53;;;;;;;4.40;1.38;;;17.10;85.10;;;;;;4993470;28;20438;-70
2022/11/21 14:17:21;;;;;;;4.22;1.15;;;17.10;85.90;;;;;;4994464;28;20045;-70
2022/11/21 14:20:28;;;;;;;3.65;1.15;;;17.10;85.30;;;;;;4993759;28;20049;-70
2022/11/21 14:23:34;;;;;;;2.17;0.93;;;17.00;85.50;;;;;;4994013;28;20038;-70
2022/11/21 14:26:48;;;;;;;4.63;1.13;;;17.00;86.00;;;;;;4994011;28;20058;-69
2022/11/21 14:29:52;;;;;;;5.00;1.20;;;17.00;86.00;;;;;;4993877;28;20045;-70
2022/11/21 14:32:56;;;;;;;3.70;1.30;;;16.90;86.50;;;;;;4993910;28;20057;-70
2022/11/21 14:36:07;;;;;;;7.72;1.60;;;16.90;87.00;;;;;;4993983;28;20049;-70
2022/11/21 14:39:14;;;;;;;;;;;16.90;86.60;;;;;;4994469;28;20391;-70
2022/11/21 14:42:18;;;;;;;4.05;1.50;;;16.90;87.20;;;;;;4994098;28;20354;-70
2022/11/21 14:45:23;;;;;;;5.57;1.45;;;16.80;87.20;;;;;;4992542;28;20049;-68
2022/11/21 14:48:28;;;;;;;10.70;2.58;;;16.80;87.60;;;;;;4993472;28;20070;-69
2022/11/21 14:51:35;;;;;;;5.03;2.13;;;16.80;88.10;;;;;;4993223;28;20049;-69
2022/11/21 14:54:45;;;;;;;6.25;2.15;;;16.70;88.00;;;;;;4992918;28;20065;-68
2022/11/21 14:57:50;;;;;;;5.43;2.20;;;16.70;88.00;;;;;;4993382;28;20045;-69
2022/11/21 15:01:07;;;;;;;9.27;3.30;;;16.70;88.30;;;;;;4993375;28;20053;-69
2022/11/21 15:04:14;;;;;;;7.72;3.30;;;16.60;89.40;;;;;;4992936;28;20050;-69
2022/11/21 15:07:23;;;;;;;10.30;4.47;;;16.60;89.70;;;;;;4993007;28;20402;-69
2022/11/21 15:10:33;;;;;;;12.43;4.53;;;16.50;90.00;;;;;;4992870;28;20053;-69
2022/11/21 15:13:38;;;;;;;6.50;3.88;;;16.40;90.30;;;;;;4992580;28;20061;-69
2022/11/21 15:16:46;;;;;;;18.27;4.38;;;16.30;90.50;;;;;;4993122;28;20122;-69
2022/11/21 15:20:18;;;;;;;8.27;2.45;;;16.30;90.80;;;;;;4992954;28;20057;-69
2022/11/21 15:23:26;;;;;;;6.05;3.20;;;16.20;90.70;;;;;;4992840;28;20045;-69
2022/11/21 15:26:32;;;;;;;6.30;3.17;;;16.10;91.00;;;;;;4992655;28;20049;-69
2022/11/21 15:29:36;;;;;;;12.18;4.47;;;16.00;91.10;;;;;;4992643;28;20049;-69
2022/11/21 15:33:00;;;;;;;14.35;2.97;;;16.00;91.40;;;;;;5002576;28;20058;-67
2022/11/21 15:36:12;;;;;;;17.50;4.05;;;16.00;91.50;;;;;;4991757;28;20077;-68
2022/11/21 15:39:21;;;;;;;10.57;2.97;;;16.00;91.40;;;;;;4992846;28;20088;-69
2022/11/21 15:42:31;;;;;;;7.82;3.42;;;15.90;91.50;;;;;;4992495;28;20045;-68
2022/11/21 15:45:35;;;;;;;15.00;4.20;;;15.90;91.60;;;;;;4992723;28;20053;-73
2022/11/21 15:48:38;;;;;;;10.05;4.10;;;15.80;92.00;;;;;;4992514;28;20057;-66
2022/11/21 15:51:48;;;;;;;14.88;4.72;;;15.70;92.50;;;;;;4992556;28;20053;-69
2022/11/21 15:54:52;;;;;;;24.20;5.38;;;15.70;92.40;;;;;;4992301;28;20056;-72
2022/11/21 15:57:56;;;;;;;32.78;7.97;;;15.70;92.80;;;;;;4992652;28;20049;-67
2022/11/21 16:01:00;;;;;;;21.83;6.78;;;15.50;93.20;;;;;;4992479;28;20045;-70
2022/11/21 16:04:10;;;;;;;12.70;5.20;;;15.50;93.50;;;;;;4991792;28;20046;-72
2022/11/21 16:07:14;;;;;;;28.10;6.10;;;15.30;93.70;;;;;;4992551;28;20049;-69
2022/11/21 16:10:18;;;;;;;14.95;5.88;;;15.20;94.10;;;;;;4992057;28;20053;-70
2022/11/21 16:13:22;;;;;;;13.73;5.68;;;15.10;94.20;;;;;;4991761;28;20057;-70
2022/11/21 16:16:31;;;;;;;21.30;5.22;;;15.10;94.40;;;;;;4992248;28;20057;-71
2022/11/21 16:19:36;;;;;;;17.60;6.32;;;15.10;94.50;;;;;;5002436;28;20054;-70
2022/11/21 16:22:40;;;;;;;17.48;6.13;;;15.00;94.80;;;;;;4991782;28;20038;-72
2022/11/21 16:25:53;;;;;;;44.40;10.07;;;15.10;95.00;;;;;;4991459;28;20054;-72
2022/11/21 16:28:58;;;;;;;31.40;9.80;;;14.80;94.90;;;;;;4991896;28;20065;-72
2022/11/21 16:32:02;;;;;;;30.08;10.18;;;14.70;95.00;;;;;;4991778;28;20049;-72
2022/11/21 16:35:06;;;;;;;29.98;10.40;;;14.70;95.40;;;;;;4991362;28;20414;-70
2022/11/21 16:38:11;;;;;;;23.30;10.38;;;14.70;95.30;;;;;;4991337;28;20192;-70
2022/11/21 16:41:18;;;;;;;23.00;10.75;;;14.70;95.50;;;;;;4991717;28;20045;-70
2022/11/21 16:44:22;;;;;;;30.20;11.85;;;14.60;95.90;;;;;;4991544;28;20062;-69
2022/11/21 16:47:26;;;;;;;31.83;11.25;;;14.70;95.50;;;;;;4991018;28;20041;-69
2022/11/21 16:50:31;;;;;;;27.52;16.40;;;14.70;94.90;;;;;;4991533;28;20517;-70
2022/11/21 16:53:35;;;;;;;32.85;16.23;;;14.70;95.10;;;;;;4991573;28;20061;-69
2022/11/21 16:56:39;;;;;;;28.73;14.70;;;14.70;94.80;;;;;;4991501;28;20045;-71
2022/11/21 16:59:42;;;;;;;29.05;15.98;;;14.70;94.60;;;;;;5001915;28;20073;-71
2022/11/21 17:02:46;;;;;;;89.65;56.42;;;14.60;94.50;;;;;;4991128;28;20386;-69
2022/11/21 17:05:57;;;;;;;48.80;25.73;;;14.70;94.60;;;;;;4991202;28;20045;-70
2022/11/21 17:09:01;;;;;;;31.55;20.98;;;14.70;94.60;;;;;;4991420;28;20386;-69
2022/11/21 17:12:06;;;;;;;34.03;17.95;;;14.50;94.10;;;;;;4991070;28;20498;-68
2022/11/21 17:15:13;;;;;;;34.38;20.13;;;14.40;94.30;;;;;;5000898;28;20058;-71
2022/11/21 17:18:16;;;;;;;35.10;22.67;;;14.20;94.50;;;;;;4991001;28;20066;-69
2022/11/21 17:21:21;;;;;;;50.22;30.23;;;14.20;94.80;;;;;;4991465;28;20054;-68